Iota, Louisiana
Current Conditions -  °F | °C
As of 9:15 AM on Thursday 18 Dec 2014 (Local Time) from K3R7 Reporting Station
Broken Clouds Broken Clouds  
Wind Chill: 57°   Ceiling: 11000
Heat Index: 57°   Visibility: 10mi
Dew Point: 51°   Wind: 9mph
Humidity: 79%   Direction: 130°SE
Pressure: 30.14"   Gusts: NA
Location:  30.33°N, 92.5°W
Report Text: K3R7 181515Z AUTO 13008KT 10SM SCT041 BKN110 14/11 A3014 RMK AO2 T01400105
Loading
Personal Weather Stations






























Interactive Weather Map New forecast layout! Learn more

10-Day Weather Forecast

Advertisements
Track Severe Weather on mobile